sensor_id;sensor_type;location;lat;lon;timestamp;temperature;humidity
7461;DHT22;6757;52.258;12.840;2023-04-15T00:02:16;7.00;99.90
7461;DHT22;6757;52.258;12.840;2023-04-15T00:04:44;7.00;99.90
7461;DHT22;6757;52.258;12.840;2023-04-15T00:07:11;7.00;99.90
7461;DHT22;6757;52.258;12.840;2023-04-15T00:09:38;7.00;99.90
7461;DHT22;6757;52.258;12.840;2023-04-15T00:12:05;7.00;99.90
7461;DHT22;6757;52.258;12.840;2023-04-15T00:14:32;7.00;99.90
7461;DHT22;6757;52.258;12.840;2023-04-15T00:17:00;7.00;99.90
7461;DHT22;6757;52.258;12.840;2023-04-15T00:19:28;7.00;99.90
7461;DHT22;6757;52.258;12.840;2023-04-15T00:21:55;7.00;99.90
7461;DHT22;6757;52.258;12.840;2023-04-15T00:24:22;7.00;99.90
7461;DHT22;6757;52.258;12.840;2023-04-15T00:26:49;7.00;99.90
7461;DHT22;6757;52.258;12.840;2023-04-15T00:29:16;7.00;99.90
7461;DHT22;6757;52.258;12.840;2023-04-15T00:31:42;7.10;99.90
7461;DHT22;6757;52.258;12.840;2023-04-15T00:34:10;7.10;99.90
7461;DHT22;6757;52.258;12.840;2023-04-15T00:36:38;7.10;99.90
7461;DHT22;6757;52.258;12.840;2023-04-15T00:39:05;7.10;99.90
7461;DHT22;6757;52.258;12.840;2023-04-15T00:41:31;7.10;99.90
7461;DHT22;6757;52.258;12.840;2023-04-15T00:43:59;7.10;99.90
7461;DHT22;6757;52.258;12.840;2023-04-15T00:46:27;7.10;99.90
7461;DHT22;6757;52.258;12.840;2023-04-15T00:48:56;7.10;99.90
7461;DHT22;6757;52.258;12.840;2023-04-15T00:51:23;7.10;99.90
7461;DHT22;6757;52.258;12.840;2023-04-15T00:53:51;7.10;99.90
7461;DHT22;6757;52.258;12.840;2023-04-15T00:56:19;7.10;99.90
7461;DHT22;6757;52.258;12.840;2023-04-15T00:58:49;7.10;99.90
7461;DHT22;6757;52.258;12.840;2023-04-15T01:01:18;7.10;99.90
7461;DHT22;6757;52.258;12.840;2023-04-15T01:03:47;7.10;99.90
7461;DHT22;6757;52.258;12.840;2023-04-15T01:06:14;7.10;99.90
7461;DHT22;6757;52.258;12.840;2023-04-15T01:08:42;7.10;99.90
7461;DHT22;6757;52.258;12.840;2023-04-15T01:11:11;7.10;99.90
7461;DHT22;6757;52.258;12.840;2023-04-15T01:13:39;7.20;99.90
7461;DHT22;6757;52.258;12.840;2023-04-15T01:16:06;7.10;99.90
7461;DHT22;6757;52.258;12.840;2023-04-15T01:18:34;7.20;99.90
7461;DHT22;6757;52.258;12.840;2023-04-15T01:21:02;7.10;99.90
7461;DHT22;6757;52.258;12.840;2023-04-15T01:23:30;7.10;99.90
7461;DHT22;6757;52.258;12.840;2023-04-15T01:25:59;7.10;99.90
7461;DHT22;6757;52.258;12.840;2023-04-15T01:28:27;7.20;99.90
7461;DHT22;6757;52.258;12.840;2023-04-15T01:31:05;7.20;99.90
7461;DHT22;6757;52.258;12.840;2023-04-15T01:33:33;7.20;99.90
7461;DHT22;6757;52.258;12.840;2023-04-15T01:36:00;7.20;99.90
7461;DHT22;6757;52.258;12.840;2023-04-15T01:38:27;7.20;99.90
7461;DHT22;6757;52.258;12.840;2023-04-15T01:40:55;7.20;99.90
7461;DHT22;6757;52.258;12.840;2023-04-15T01:43:25;7.20;99.90
7461;DHT22;6757;52.258;12.840;2023-04-15T01:45:52;7.20;99.90
7461;DHT22;6757;52.258;12.840;2023-04-15T01:48:19;7.20;99.90
7461;DHT22;6757;52.258;12.840;2023-04-15T01:50:46;7.20;99.90
7461;DHT22;6757;52.258;12.840;2023-04-15T01:53:13;7.30;99.90
7461;DHT22;6757;52.258;12.840;2023-04-15T01:55:41;7.30;99.90
7461;DHT22;6757;52.258;12.840;2023-04-15T01:58:08;7.30;99.90
7461;DHT22;6757;52.258;12.840;2023-04-15T02:00:36;7.20;99.90
7461;DHT22;6757;52.258;12.840;2023-04-15T02:03:03;7.30;99.90
7461;DHT22;6757;52.258;12.840;2023-04-15T02:05:30;7.30;99.90
7461;DHT22;6757;52.258;12.840;2023-04-15T02:07:58;7.30;99.90
7461;DHT22;6757;52.258;12.840;2023-04-15T02:10:25;7.30;99.90
7461;DHT22;6757;52.258;12.840;2023-04-15T02:12:52;7.30;99.90
7461;DHT22;6757;52.258;12.840;2023-04-15T02:15:19;7.30;99.90
7461;DHT22;6757;52.258;12.840;2023-04-15T02:17:47;7.30;99.90
7461;DHT22;6757;52.258;12.840;2023-04-15T02:20:15;7.30;99.90
7461;DHT22;6757;52.258;12.840;2023-04-15T02:22:43;7.30;99.90
7461;DHT22;6757;52.258;12.840;2023-04-15T02:25:10;7.40;99.90
7461;DHT22;6757;52.258;12.840;2023-04-15T02:27:37;7.40;99.90
7461;DHT22;6757;52.258;12.840;2023-04-15T02:30:04;7.40;99.90
7461;DHT22;6757;52.258;12.840;2023-04-15T02:32:33;7.40;99.90
7461;DHT22;6757;52.258;12.840;2023-04-15T02:35:04;7.40;99.90
7461;DHT22;6757;52.258;12.840;2023-04-15T02:37:33;7.40;99.90
7461;DHT22;6757;52.258;12.840;2023-04-15T02:40:06;7.40;99.90
7461;DHT22;6757;52.258;12.840;2023-04-15T02:42:34;7.40;99.90
7461;DHT22;6757;52.258;12.840;2023-04-15T02:45:01;7.40;99.90
7461;DHT22;6757;52.258;12.840;2023-04-15T02:47:28;7.40;99.90
7461;DHT22;6757;52.258;12.840;2023-04-15T02:49:55;7.40;99.90
7461;DHT22;6757;52.258;12.840;2023-04-15T02:52:24;7.40;99.90
7461;DHT22;6757;52.258;12.840;2023-04-15T02:54:51;7.40;99.90
7461;DHT22;6757;52.258;12.840;2023-04-15T02:57:21;7.40;99.90
7461;DHT22;6757;52.258;12.840;2023-04-15T02:59:48;7.50;99.90
7461;DHT22;6757;52.258;12.840;2023-04-15T03:02:15;7.50;99.90
7461;DHT22;6757;52.258;12.840;2023-04-15T03:04:42;7.50;99.90
7461;DHT22;6757;52.258;12.840;2023-04-15T03:07:09;7.50;99.90
7461;DHT22;6757;52.258;12.840;2023-04-15T03:09:37;7.40;99.90
7461;DHT22;6757;52.258;12.840;2023-04-15T03:12:05;7.50;99.90
7461;DHT22;6757;52.258;12.840;2023-04-15T03:14:32;7.50;99.90
7461;DHT22;6757;52.258;12.840;2023-04-15T03:16:59;7.50;99.90
7461;DHT22;6757;52.258;12.840;2023-04-15T03:19:26;7.50;99.90
7461;DHT22;6757;52.258;12.840;2023-04-15T03:21:53;7.50;99.90
7461;DHT22;6757;52.258;12.840;2023-04-15T03:24:19;7.50;99.90
7461;DHT22;6757;52.258;12.840;2023-04-15T03:26:48;7.50;99.90
7461;DHT22;6757;52.258;12.840;2023-04-15T03:29:15;7.60;99.90
7461;DHT22;6757;52.258;12.840;2023-04-15T03:31:41;7.50;99.90
7461;DHT22;6757;52.258;12.840;2023-04-15T03:34:08;7.50;99.90
7461;DHT22;6757;52.258;12.840;2023-04-15T03:36:35;7.50;99.90
7461;DHT22;6757;52.258;12.840;2023-04-15T03:39:02;7.50;99.90
7461;DHT22;6757;52.258;12.840;2023-04-15T03:41:30;7.50;99.90
7461;DHT22;6757;52.258;12.840;2023-04-15T03:43:58;7.50;99.90
7461;DHT22;6757;52.258;12.840;2023-04-15T03:46:25;7.50;99.90
7461;DHT22;6757;52.258;12.840;2023-04-15T03:48:52;7.50;99.90
7461;DHT22;6757;52.258;12.840;2023-04-15T03:51:19;7.60;99.90
7461;DHT22;6757;52.258;12.840;2023-04-15T03:53:46;7.60;99.90
7461;DHT22;6757;52.258;12.840;2023-04-15T03:56:13;7.60;99.90
7461;DHT22;6757;52.258;12.840;2023-04-15T03:58:40;7.60;99.90
7461;DHT22;6757;52.258;12.840;2023-04-15T04:01:08;7.60;99.90
7461;DHT22;6757;52.258;12.840;2023-04-15T04:03:35;7.60;99.90
7461;DHT22;6757;52.258;12.840;2023-04-15T04:06:02;7.60;99.90
7461;DHT22;6757;52.258;12.840;2023-04-15T04:08:29;7.60;99.90
7461;DHT22;6757;52.258;12.840;2023-04-15T04:10:56;7.60;99.90
7461;DHT22;6757;52.258;12.840;2023-04-15T04:13:23;7.60;99.90
7461;DHT22;6757;52.258;12.840;2023-04-15T04:15:50;7.60;99.90
7461;DHT22;6757;52.258;12.840;2023-04-15T04:18:18;7.60;99.90
7461;DHT22;6757;52.258;12.840;2023-04-15T04:20:45;7.60;99.90
7461;DHT22;6757;52.258;12.840;2023-04-15T04:23:12;7.60;99.90
7461;DHT22;6757;52.258;12.840;2023-04-15T04:25:39;7.70;99.90
7461;DHT22;6757;52.258;12.840;2023-04-15T04:28:06;7.60;99.90
7461;DHT22;6757;52.258;12.840;2023-04-15T04:30:33;7.60;99.90
7461;DHT22;6757;52.258;12.840;2023-04-15T04:33:01;7.60;99.90
7461;DHT22;6757;52.258;12.840;2023-04-15T04:35:29;7.60;99.90
7461;DHT22;6757;52.258;12.840;2023-04-15T04:37:58;7.70;99.90
7461;DHT22;6757;52.258;12.840;2023-04-15T04:40:25;7.70;99.90
7461;DHT22;6757;52.258;12.840;2023-04-15T04:42:52;7.70;99.90
7461;DHT22;6757;52.258;12.840;2023-04-15T04:45:19;7.70;99.90
7461;DHT22;6757;52.258;12.840;2023-04-15T04:47:46;7.70;99.90
7461;DHT22;6757;52.258;12.840;2023-04-15T04:50:13;7.70;99.90
7461;DHT22;6757;52.258;12.840;2023-04-15T04:52:41;7.70;99.90
7461;DHT22;6757;52.258;12.840;2023-04-15T04:55:08;7.70;99.90
7461;DHT22;6757;52.258;12.840;2023-04-15T04:57:35;7.70;99.90
7461;DHT22;6757;52.258;12.840;2023-04-15T05:00:05;7.70;99.90
7461;DHT22;6757;52.258;12.840;2023-04-15T05:02:32;7.70;99.90
7461;DHT22;6757;52.258;12.840;2023-04-15T05:05:00;7.70;99.90
7461;DHT22;6757;52.258;12.840;2023-04-15T05:07:27;7.70;99.90
7461;DHT22;6757;52.258;12.840;2023-04-15T05:09:55;7.80;99.90
7461;DHT22;6757;52.258;12.840;2023-04-15T05:12:22;7.70;99.90
7461;DHT22;6757;52.258;12.840;2023-04-15T05:14:49;7.80;99.90
7461;DHT22;6757;52.258;12.840;2023-04-15T05:17:15;7.80;99.90
7461;DHT22;6757;52.258;12.840;2023-04-15T05:19:42;7.80;99.90
7461;DHT22;6757;52.258;12.840;2023-04-15T05:22:09;7.80;99.90
7461;DHT22;6757;52.258;12.840;2023-04-15T05:24:36;7.80;99.90
7461;DHT22;6757;52.258;12.840;2023-04-15T05:27:04;7.80;99.90
7461;DHT22;6757;52.258;12.840;2023-04-15T05:29:32;7.80;99.90
7461;DHT22;6757;52.258;12.840;2023-04-15T05:31:59;7.80;99.90
7461;DHT22;6757;52.258;12.840;2023-04-15T05:34:26;7.90;99.90
7461;DHT22;6757;52.258;12.840;2023-04-15T05:36:53;7.90;99.90
7461;DHT22;6757;52.258;12.840;2023-04-15T05:39:20;8.00;99.90
7461;DHT22;6757;52.258;12.840;2023-04-15T05:41:47;8.00;99.90
7461;DHT22;6757;52.258;12.840;2023-04-15T05:44:15;8.00;99.90
7461;DHT22;6757;52.258;12.840;2023-04-15T05:46:42;8.00;99.90
7461;DHT22;6757;52.258;12.840;2023-04-15T05:49:09;8.10;99.90
7461;DHT22;6757;52.258;12.840;2023-04-15T05:51:36;8.10;99.90
7461;DHT22;6757;52.258;12.840;2023-04-15T05:54:03;8.10;99.90
7461;DHT22;6757;52.258;12.840;2023-04-15T05:56:30;8.10;99.90
7461;DHT22;6757;52.258;12.840;2023-04-15T05:58:57;8.20;99.90
7461;DHT22;6757;52.258;12.840;2023-04-15T06:01:25;8.20;99.90
7461;DHT22;6757;52.258;12.840;2023-04-15T06:03:52;8.20;99.90
7461;DHT22;6757;52.258;12.840;2023-04-15T06:06:19;8.20;99.90
7461;DHT22;6757;52.258;12.840;2023-04-15T06:08:46;8.30;99.90
7461;DHT22;6757;52.258;12.840;2023-04-15T06:11:12;8.30;99.90
7461;DHT22;6757;52.258;12.840;2023-04-15T06:13:40;8.30;99.90
7461;DHT22;6757;52.258;12.840;2023-04-15T06:16:06;8.40;99.90
7461;DHT22;6757;52.258;12.840;2023-04-15T06:18:35;8.40;99.90
7461;DHT22;6757;52.258;12.840;2023-04-15T06:21:01;8.50;99.90
7461;DHT22;6757;52.258;12.840;2023-04-15T06:23:28;8.80;99.90
7461;DHT22;6757;52.258;12.840;2023-04-15T06:25:56;9.00;99.90
7461;DHT22;6757;52.258;12.840;2023-04-15T06:28:22;9.10;99.90
7461;DHT22;6757;52.258;12.840;2023-04-15T06:30:49;9.10;99.90
7461;DHT22;6757;52.258;12.840;2023-04-15T06:33:16;9.20;99.90
7461;DHT22;6757;52.258;12.840;2023-04-15T06:35:45;9.30;99.90
7461;DHT22;6757;52.258;12.840;2023-04-15T06:38:12;9.20;99.90
7461;DHT22;6757;52.258;12.840;2023-04-15T06:40:39;9.30;99.90
7461;DHT22;6757;52.258;12.840;2023-04-15T06:43:06;9.30;99.90
7461;DHT22;6757;52.258;12.840;2023-04-15T06:45:34;9.40;99.90
7461;DHT22;6757;52.258;12.840;2023-04-15T06:48:01;9.40;99.90
7461;DHT22;6757;52.258;12.840;2023-04-15T06:50:28;9.40;99.90
7461;DHT22;6757;52.258;12.840;2023-04-15T06:52:56;9.50;99.90
7461;DHT22;6757;52.258;12.840;2023-04-15T06:55:23;9.50;99.90
7461;DHT22;6757;52.258;12.840;2023-04-15T06:57:50;9.50;99.90
7461;DHT22;6757;52.258;12.840;2023-04-15T07:00:17;9.50;99.90
7461;DHT22;6757;52.258;12.840;2023-04-15T07:02:44;9.60;99.90
7461;DHT22;6757;52.258;12.840;2023-04-15T07:05:12;9.60;99.90
7461;DHT22;6757;52.258;12.840;2023-04-15T07:07:39;9.60;99.90
7461;DHT22;6757;52.258;12.840;2023-04-15T07:10:08;9.70;99.90
7461;DHT22;6757;52.258;12.840;2023-04-15T07:12:36;9.90;99.90
7461;DHT22;6757;52.258;12.840;2023-04-15T07:15:04;10.00;99.90
7461;DHT22;6757;52.258;12.840;2023-04-15T07:17:31;10.10;99.90
7461;DHT22;6757;52.258;12.840;2023-04-15T07:19:58;10.20;99.90
7461;DHT22;6757;52.258;12.840;2023-04-15T07:22:25;10.30;99.90
7461;DHT22;6757;52.258;12.840;2023-04-15T07:24:52;10.30;99.90
7461;DHT22;6757;52.258;12.840;2023-04-15T07:27:20;10.40;99.90
7461;DHT22;6757;52.258;12.840;2023-04-15T07:29:47;10.40;99.90
7461;DHT22;6757;52.258;12.840;2023-04-15T07:32:16;10.40;99.90
7461;DHT22;6757;52.258;12.840;2023-04-15T07:34:43;10.40;99.90
7461;DHT22;6757;52.258;12.840;2023-04-15T07:37:10;10.40;99.90
7461;DHT22;6757;52.258;12.840;2023-04-15T07:39:37;10.40;99.90
7461;DHT22;6757;52.258;12.840;2023-04-15T07:42:04;10.50;99.90
7461;DHT22;6757;52.258;12.840;2023-04-15T07:44:32;10.50;99.90
7461;DHT22;6757;52.258;12.840;2023-04-15T07:47:00;10.50;99.90
7461;DHT22;6757;52.258;12.840;2023-04-15T07:49:27;10.50;99.90
7461;DHT22;6757;52.258;12.840;2023-04-15T07:51:54;10.50;99.90
7461;DHT22;6757;52.258;12.840;2023-04-15T07:54:22;10.50;99.90
7461;DHT22;6757;52.258;12.840;2023-04-15T07:56:49;10.60;99.90
7461;DHT22;6757;52.258;12.840;2023-04-15T07:59:16;10.60;99.90
7461;DHT22;6757;52.258;12.840;2023-04-15T08:01:45;10.60;99.90
7461;DHT22;6757;52.258;12.840;2023-04-15T08:04:11;10.70;99.90
7461;DHT22;6757;52.258;12.840;2023-04-15T08:06:39;10.70;99.90
7461;DHT22;6757;52.258;12.840;2023-04-15T08:09:06;10.70;99.90
7461;DHT22;6757;52.258;12.840;2023-04-15T08:11:33;10.70;99.90
7461;DHT22;6757;52.258;12.840;2023-04-15T08:14:00;10.70;99.90
7461;DHT22;6757;52.258;12.840;2023-04-15T08:16:27;10.70;99.90
7461;DHT22;6757;52.258;12.840;2023-04-15T08:18:56;10.70;99.90
7461;DHT22;6757;52.258;12.840;2023-04-15T08:21:23;10.70;99.90
7461;DHT22;6757;52.258;12.840;2023-04-15T08:23:51;10.70;99.90
7461;DHT22;6757;52.258;12.840;2023-04-15T08:26:19;10.70;99.90
7461;DHT22;6757;52.258;12.840;2023-04-15T08:28:47;10.80;99.90
7461;DHT22;6757;52.258;12.840;2023-04-15T08:31:15;10.80;99.90
7461;DHT22;6757;52.258;12.840;2023-04-15T08:33:43;10.80;99.90
7461;DHT22;6757;52.258;12.840;2023-04-15T08:36:11;10.80;99.90
7461;DHT22;6757;52.258;12.840;2023-04-15T08:38:39;10.80;99.90
7461;DHT22;6757;52.258;12.840;2023-04-15T08:41:09;10.80;99.90
7461;DHT22;6757;52.258;12.840;2023-04-15T08:43:45;10.80;99.90
7461;DHT22;6757;52.258;12.840;2023-04-15T08:46:15;10.90;99.90
7461;DHT22;6757;52.258;12.840;2023-04-15T08:48:43;11.00;99.90
7461;DHT22;6757;52.258;12.840;2023-04-15T08:51:13;11.10;99.90
7461;DHT22;6757;52.258;12.840;2023-04-15T08:53:42;11.10;99.90
7461;DHT22;6757;52.258;12.840;2023-04-15T08:56:11;11.00;99.90
7461;DHT22;6757;52.258;12.840;2023-04-15T08:58:40;11.00;99.90
7461;DHT22;6757;52.258;12.840;2023-04-15T09:01:07;11.00;99.90
7461;DHT22;6757;52.258;12.840;2023-04-15T09:03:34;10.90;99.90
7461;DHT22;6757;52.258;12.840;2023-04-15T09:06:03;10.90;99.90
7461;DHT22;6757;52.258;12.840;2023-04-15T09:08:32;10.80;99.90
7461;DHT22;6757;52.258;12.840;2023-04-15T09:11:00;10.80;99.90
7461;DHT22;6757;52.258;12.840;2023-04-15T09:13:28;10.70;99.90
7461;DHT22;6757;52.258;12.840;2023-04-15T09:15:55;10.70;99.90
7461;DHT22;6757;52.258;12.840;2023-04-15T09:18:29;10.70;99.90
7461;DHT22;6757;52.258;12.840;2023-04-15T09:21:03;10.70;99.90
7461;DHT22;6757;52.258;12.840;2023-04-15T09:23:35;10.70;99.90
7461;DHT22;6757;52.258;12.840;2023-04-15T09:26:02;10.70;99.90
7461;DHT22;6757;52.258;12.840;2023-04-15T09:28:30;10.60;99.90
7461;DHT22;6757;52.258;12.840;2023-04-15T09:30:58;10.60;99.90
7461;DHT22;6757;52.258;12.840;2023-04-15T09:33:26;10.50;99.90
7461;DHT22;6757;52.258;12.840;2023-04-15T09:35:59;10.50;99.90
7461;DHT22;6757;52.258;12.840;2023-04-15T09:38:27;10.40;99.90
7461;DHT22;6757;52.258;12.840;2023-04-15T09:40:56;10.40;99.90
7461;DHT22;6757;52.258;12.840;2023-04-15T09:43:36;10.40;99.90
7461;DHT22;6757;52.258;12.840;2023-04-15T09:46:03;10.40;99.90
7461;DHT22;6757;52.258;12.840;2023-04-15T09:48:30;10.40;99.90
7461;DHT22;6757;52.258;12.840;2023-04-15T09:50:58;10.40;99.90
7461;DHT22;6757;52.258;12.840;2023-04-15T09:53:26;10.40;99.90
7461;DHT22;6757;52.258;12.840;2023-04-15T09:55:57;10.30;99.90
7461;DHT22;6757;52.258;12.840;2023-04-15T09:58:26;10.30;99.90
7461;DHT22;6757;52.258;12.840;2023-04-15T10:00:55;10.20;99.90
7461;DHT22;6757;52.258;12.840;2023-04-15T10:03:24;10.30;99.90
7461;DHT22;6757;52.258;12.840;2023-04-15T10:05:54;10.30;99.90
7461;DHT22;6757;52.258;12.840;2023-04-15T10:08:24;10.30;99.90
7461;DHT22;6757;52.258;12.840;2023-04-15T10:10:52;10.30;99.90
7461;DHT22;6757;52.258;12.840;2023-04-15T10:13:23;10.30;99.90
7461;DHT22;6757;52.258;12.840;2023-04-15T10:15:55;10.20;99.90
7461;DHT22;6757;52.258;12.840;2023-04-15T10:18:25;10.20;99.90
7461;DHT22;6757;52.258;12.840;2023-04-15T10:20:53;10.20;99.90
7461;DHT22;6757;52.258;12.840;2023-04-15T10:23:21;10.20;99.90
7461;DHT22;6757;52.258;12.840;2023-04-15T10:25:51;10.20;99.90
7461;DHT22;6757;52.258;12.840;2023-04-15T10:28:20;10.20;99.90
7461;DHT22;6757;52.258;12.840;2023-04-15T10:30:48;10.20;99.90
7461;DHT22;6757;52.258;12.840;2023-04-15T10:33:17;10.20;99.90
7461;DHT22;6757;52.258;12.840;2023-04-15T10:35:47;10.10;99.90
7461;DHT22;6757;52.258;12.840;2023-04-15T10:38:33;10.10;99.90
7461;DHT22;6757;52.258;12.840;2023-04-15T10:41:14;10.10;99.90
7461;DHT22;6757;52.258;12.840;2023-04-15T10:43:51;10.10;99.90
7461;DHT22;6757;52.258;12.840;2023-04-15T10:46:21;10.10;99.90
7461;DHT22;6757;52.258;12.840;2023-04-15T10:48:51;10.70;99.90
7461;DHT22;6757;52.258;12.840;2023-04-15T10:51:29;10.10;99.90
7461;DHT22;6757;52.258;12.840;2023-04-15T10:53:58;10.10;99.90
7461;DHT22;6757;52.258;12.840;2023-04-15T10:56:27;10.60;99.90
7461;DHT22;6757;52.258;12.840;2023-04-15T10:58:59;10.10;99.90
7461;DHT22;6757;52.258;12.840;2023-04-15T11:01:52;10.10;99.90
7461;DHT22;6757;52.258;12.840;2023-04-15T11:04:52;10.10;99.90
7461;DHT22;6757;52.258;12.840;2023-04-15T11:07:33;10.10;99.90
7461;DHT22;6757;52.258;12.840;2023-04-15T11:10:05;10.10;99.90
7461;DHT22;6757;52.258;12.840;2023-04-15T11:13:24;10.20;99.90
7461;DHT22;6757;52.258;12.840;2023-04-15T11:16:03;10.30;99.90
7461;DHT22;6757;52.258;12.840;2023-04-15T11:18:33;10.40;99.90
7461;DHT22;6757;52.258;12.840;2023-04-15T11:21:06;10.50;99.90
7461;DHT22;6757;52.258;12.840;2023-04-15T11:23:37;10.50;99.90
7461;DHT22;6757;52.258;12.840;2023-04-15T11:26:07;10.50;99.90
7461;DHT22;6757;52.258;12.840;2023-04-15T11:28:37;10.40;99.90
7461;DHT22;6757;52.258;12.840;2023-04-15T11:31:11;10.40;99.90
7461;DHT22;6757;52.258;12.840;2023-04-15T11:33:53;10.40;99.90
7461;DHT22;6757;52.258;12.840;2023-04-15T11:36:23;10.40;99.90
7461;DHT22;6757;52.258;12.840;2023-04-15T11:38:52;10.40;99.90
7461;DHT22;6757;52.258;12.840;2023-04-15T11:41:20;10.40;99.90
7461;DHT22;6757;52.258;12.840;2023-04-15T11:43:48;10.40;99.90
7461;DHT22;6757;52.258;12.840;2023-04-15T11:46:16;10.40;99.90
7461;DHT22;6757;52.258;12.840;2023-04-15T11:48:44;10.40;99.90
7461;DHT22;6757;52.258;12.840;2023-04-15T11:51:13;10.40;99.90
7461;DHT22;6757;52.258;12.840;2023-04-15T11:53:41;10.50;99.90
7461;DHT22;6757;52.258;12.840;2023-04-15T11:56:10;10.50;99.90
7461;DHT22;6757;52.258;12.840;2023-04-15T11:58:42;10.50;99.90
7461;DHT22;6757;52.258;12.840;2023-04-15T12:01:10;10.50;99.90
7461;DHT22;6757;52.258;12.840;2023-04-15T12:03:41;10.50;99.90
7461;DHT22;6757;52.258;12.840;2023-04-15T12:06:14;10.50;99.90
7461;DHT22;6757;52.258;12.840;2023-04-15T12:08:58;10.50;99.90
7461;DHT22;6757;52.258;12.840;2023-04-15T12:11:41;10.50;99.90
7461;DHT22;6757;52.258;12.840;2023-04-15T12:14:11;10.50;99.90
7461;DHT22;6757;52.258;12.840;2023-04-15T12:16:43;10.50;99.90
7461;DHT22;6757;52.258;12.840;2023-04-15T12:19:14;10.50;99.90
7461;DHT22;6757;52.258;12.840;2023-04-15T12:21:44;10.50;99.90
7461;DHT22;6757;52.258;12.840;2023-04-15T12:24:13;10.50;99.90
7461;DHT22;6757;52.258;12.840;2023-04-15T12:26:45;10.50;99.90
7461;DHT22;6757;52.258;12.840;2023-04-15T12:29:14;10.50;99.90
7461;DHT22;6757;52.258;12.840;2023-04-15T12:31:49;10.50;99.90
7461;DHT22;6757;52.258;12.840;2023-04-15T12:34:25;10.50;99.90
7461;DHT22;6757;52.258;12.840;2023-04-15T12:36:54;10.50;99.90
7461;DHT22;6757;52.258;12.840;2023-04-15T12:39:22;10.50;99.90
7461;DHT22;6757;52.258;12.840;2023-04-15T12:41:49;10.50;99.90
7461;DHT22;6757;52.258;12.840;2023-04-15T12:44:17;10.50;99.90
7461;DHT22;6757;52.258;12.840;2023-04-15T12:46:45;10.50;99.90
7461;DHT22;6757;52.258;12.840;2023-04-15T12:49:12;10.50;99.90
7461;DHT22;6757;52.258;12.840;2023-04-15T12:51:42;10.60;99.90
7461;DHT22;6757;52.258;12.840;2023-04-15T12:54:09;10.60;99.90
7461;DHT22;6757;52.258;12.840;2023-04-15T12:56:37;10.60;99.90
7461;DHT22;6757;52.258;12.840;2023-04-15T12:59:04;10.60;99.90
7461;DHT22;6757;52.258;12.840;2023-04-15T13:01:32;10.60;99.90
7461;DHT22;6757;52.258;12.840;2023-04-15T13:04:00;10.70;99.90
7461;DHT22;6757;52.258;12.840;2023-04-15T13:06:27;10.70;99.90
7461;DHT22;6757;52.258;12.840;2023-04-15T13:08:58;10.60;99.90
7461;DHT22;6757;52.258;12.840;2023-04-15T13:11:26;10.70;99.90
7461;DHT22;6757;52.258;12.840;2023-04-15T13:13:55;10.70;99.90
7461;DHT22;6757;52.258;12.840;2023-04-15T13:16:23;10.70;99.90
7461;DHT22;6757;52.258;12.840;2023-04-15T13:18:50;10.70;99.90
7461;DHT22;6757;52.258;12.840;2023-04-15T13:21:17;10.80;99.90
7461;DHT22;6757;52.258;12.840;2023-04-15T13:23:44;10.80;99.90
7461;DHT22;6757;52.258;12.840;2023-04-15T13:26:13;10.80;99.90
7461;DHT22;6757;52.258;12.840;2023-04-15T13:28:40;10.80;99.90
7461;DHT22;6757;52.258;12.840;2023-04-15T13:31:07;10.90;99.90
7461;DHT22;6757;52.258;12.840;2023-04-15T13:33:34;10.90;99.90
7461;DHT22;6757;52.258;12.840;2023-04-15T13:36:01;10.80;99.90
7461;DHT22;6757;52.258;12.840;2023-04-15T13:38:28;10.90;99.90
7461;DHT22;6757;52.258;12.840;2023-04-15T13:40:55;10.90;99.90
7461;DHT22;6757;52.258;12.840;2023-04-15T13:43:24;10.90;99.90
7461;DHT22;6757;52.258;12.840;2023-04-15T13:45:51;10.90;99.90
7461;DHT22;6757;52.258;12.840;2023-04-15T13:48:18;11.00;99.90
7461;DHT22;6757;52.258;12.840;2023-04-15T13:50:45;11.00;99.90
7461;DHT22;6757;52.258;12.840;2023-04-15T13:53:12;11.00;99.90
7461;DHT22;6757;52.258;12.840;2023-04-15T13:55:39;11.00;99.90
7461;DHT22;6757;52.258;12.840;2023-04-15T13:58:07;11.00;99.90
7461;DHT22;6757;52.258;12.840;2023-04-15T14:00:35;11.00;99.90
7461;DHT22;6757;52.258;12.840;2023-04-15T14:03:02;11.00;99.90
7461;DHT22;6757;52.258;12.840;2023-04-15T14:05:30;11.00;99.90
7461;DHT22;6757;52.258;12.840;2023-04-15T14:07:58;11.00;99.90
7461;DHT22;6757;52.258;12.840;2023-04-15T14:10:25;11.00;99.90
7461;DHT22;6757;52.258;12.840;2023-04-15T14:12:52;11.00;99.90
7461;DHT22;6757;52.258;12.840;2023-04-15T14:15:19;11.00;99.90
7461;DHT22;6757;52.258;12.840;2023-04-15T14:17:48;11.00;99.90
7461;DHT22;6757;52.258;12.840;2023-04-15T14:20:14;11.00;99.90
7461;DHT22;6757;52.258;12.840;2023-04-15T14:22:41;11.00;99.90
7461;DHT22;6757;52.258;12.840;2023-04-15T14:25:08;11.10;99.90
7461;DHT22;6757;52.258;12.840;2023-04-15T14:27:35;11.00;99.90
7461;DHT22;6757;52.258;12.840;2023-04-15T14:30:03;11.00;99.90
7461;DHT22;6757;52.258;12.840;2023-04-15T14:32:30;11.00;99.90
7461;DHT22;6757;52.258;12.840;2023-04-15T14:34:58;11.10;99.90
7461;DHT22;6757;52.258;12.840;2023-04-15T14:37:26;11.20;99.90
7461;DHT22;6757;52.258;12.840;2023-04-15T14:39:53;11.20;99.90
7461;DHT22;6757;52.258;12.840;2023-04-15T14:42:20;11.20;99.90
7461;DHT22;6757;52.258;12.840;2023-04-15T14:44:46;11.10;99.90
7461;DHT22;6757;52.258;12.840;2023-04-15T14:47:14;11.10;99.90
7461;DHT22;6757;52.258;12.840;2023-04-15T14:49:41;11.10;99.90
7461;DHT22;6757;52.258;12.840;2023-04-15T14:52:09;11.00;99.90
7461;DHT22;6757;52.258;12.840;2023-04-15T14:54:36;11.00;99.90
7461;DHT22;6757;52.258;12.840;2023-04-15T14:57:02;10.90;99.90
7461;DHT22;6757;52.258;12.840;2023-04-15T14:59:29;10.90;99.90
7461;DHT22;6757;52.258;12.840;2023-04-15T15:01:56;10.90;99.90
7461;DHT22;6757;52.258;12.840;2023-04-15T15:04:23;10.90;99.90
7461;DHT22;6757;52.258;12.840;2023-04-15T15:06:50;10.90;99.90
7461;DHT22;6757;52.258;12.840;2023-04-15T15:09:18;10.80;99.90
7461;DHT22;6757;52.258;12.840;2023-04-15T15:11:48;10.80;99.90
7461;DHT22;6757;52.258;12.840;2023-04-15T15:14:15;10.80;99.90
7461;DHT22;6757;52.258;12.840;2023-04-15T15:16:42;10.80;99.90
7461;DHT22;6757;52.258;12.840;2023-04-15T15:19:09;10.80;99.90
7461;DHT22;6757;52.258;12.840;2023-04-15T15:21:36;10.80;99.90
7461;DHT22;6757;52.258;12.840;2023-04-15T15:24:03;10.80;99.90
7461;DHT22;6757;52.258;12.840;2023-04-15T15:26:32;10.70;99.90
7461;DHT22;6757;52.258;12.840;2023-04-15T15:28:59;10.70;99.90
7461;DHT22;6757;52.258;12.840;2023-04-15T15:31:26;10.70;99.90
7461;DHT22;6757;52.258;12.840;2023-04-15T15:33:53;10.80;99.90
7461;DHT22;6757;52.258;12.840;2023-04-15T15:36:20;11.00;99.90
7461;DHT22;6757;52.258;12.840;2023-04-15T15:38:47;11.10;99.90
7461;DHT22;6757;52.258;12.840;2023-04-15T15:41:14;11.10;99.90
7461;DHT22;6757;52.258;12.840;2023-04-15T15:43:42;11.10;99.90
7461;DHT22;6757;52.258;12.840;2023-04-15T15:46:09;11.10;99.90
7461;DHT22;6757;52.258;12.840;2023-04-15T15:48:36;11.00;99.90
7461;DHT22;6757;52.258;12.840;2023-04-15T15:51:04;10.90;99.90
7461;DHT22;6757;52.258;12.840;2023-04-15T15:53:31;10.90;99.90
7461;DHT22;6757;52.258;12.840;2023-04-15T15:55:59;10.80;99.90
7461;DHT22;6757;52.258;12.840;2023-04-15T15:58:28;10.80;99.90
7461;DHT22;6757;52.258;12.840;2023-04-15T16:00:56;10.70;99.90